Time;durP1;ratioP1;P1;durP2;ratioP2;P2;SDS_P1;SDS_P2;PMS_P1;PMS_P2;Temp;Humidity;BMP_temperature;BMP_pressure;BME280_temperature;BME280_humidity;BME280_pressure;Samples;Min_cycle;Max_cycle;Signal;HPM_P1;HPM_P2
2022/11/19 00:00:48;;;;;;;8.90;5.83;;;6.80;99.90;;;;;;4958671;29;20518;-79
2022/11/19 00:03:15;;;;;;;7.20;5.53;;;6.70;99.90;;;;;;4959598;29;20681;-79
2022/11/19 00:05:42;;;;;;;5.77;4.60;;;6.80;99.90;;;;;;4959104;28;20421;-78
2022/11/19 00:08:08;;;;;;;7.17;5.93;;;6.80;99.90;;;;;;4959065;29;20828;-79
2022/11/19 00:10:37;;;;;;;6.73;5.53;;;6.80;99.90;;;;;;4958795;29;20481;-79
2022/11/19 00:13:04;;;;;;;5.87;4.90;;;6.90;99.90;;;;;;4958757;28;20270;-79
2022/11/19 00:15:30;;;;;;;6.60;5.00;;;6.90;99.90;;;;;;4959932;29;20429;-79
2022/11/19 00:17:57;;;;;;;7.60;6.03;;;6.80;99.90;;;;;;4959733;29;20436;-78
2022/11/19 00:20:22;;;;;;;8.13;5.33;;;6.80;99.90;;;;;;4960022;29;20186;-78
2022/11/19 00:22:55;;;;;;;6.73;5.63;;;6.70;99.90;;;;;;4960699;28;20804;-78
2022/11/19 00:25:22;;;;;;;8.00;5.97;;;6.80;99.90;;;;;;4959399;29;20669;-78
2022/11/19 00:27:48;;;;;;;8.93;6.80;;;6.70;99.90;;;;;;4959299;28;20480;-77
2022/11/19 00:30:14;;;;;;;8.37;6.33;;;6.70;99.90;;;;;;4941873;29;20429;-78
2022/11/19 00:32:40;;;;;;;7.53;6.20;;;6.80;99.90;;;;;;4958938;28;20705;-78
2022/11/19 00:35:06;;;;;;;7.37;5.50;;;6.60;99.90;;;;;;4958955;29;20434;-78
2022/11/19 00:37:31;;;;;;;8.53;6.87;;;6.60;99.90;;;;;;4959300;28;20685;-78
2022/11/19 00:39:57;;;;;;;10.07;7.07;;;6.70;99.90;;;;;;4959085;28;20511;-78
2022/11/19 00:42:23;;;;;;;9.67;6.80;;;6.60;99.90;;;;;;4958796;28;20256;-79
2022/11/19 00:44:49;;;;;;;9.50;6.87;;;6.50;99.90;;;;;;4958912;28;20245;-79
2022/11/19 00:47:15;;;;;;;9.37;7.50;;;6.50;99.90;;;;;;4958426;29;20470;-79
2022/11/19 00:49:41;;;;;;;12.20;6.87;;;6.60;99.90;;;;;;4958476;29;20186;-79
2022/11/19 00:52:07;;;;;;;8.13;7.27;;;6.60;99.90;;;;;;4958928;29;20488;-79
2022/11/19 00:54:32;;;;;;;8.33;7.23;;;6.60;99.90;;;;;;4959268;29;20189;-79
2022/11/19 00:56:58;;;;;;;10.13;7.60;;;6.60;99.90;;;;;;4958454;28;20175;-79
2022/11/19 00:59:23;;;;;;;13.00;8.20;;;6.50;99.90;;;;;;4958024;28;20178;-78
2022/11/19 01:01:49;;;;;;;13.10;8.67;;;6.40;99.90;;;;;;4959089;29;20236;-78
2022/11/19 01:04:14;;;;;;;15.90;9.80;;;6.30;99.90;;;;;;4958838;29;20181;-78
2022/11/19 01:06:40;;;;;;;13.20;7.90;;;6.20;99.90;;;;;;4958881;28;20202;-78
2022/11/19 01:09:06;;;;;;;12.50;8.83;;;6.20;99.90;;;;;;4941803;29;20654;-77
2022/11/19 01:11:34;;;;;;;12.60;8.27;;;6.20;99.90;;;;;;4958374;28;20178;-80
2022/11/19 01:14:00;;;;;;;11.20;8.80;;;6.20;99.90;;;;;;4958845;28;20191;-78
2022/11/19 01:16:37;;;;;;;13.27;9.57;;;6.10;99.90;;;;;;4957606;29;20426;-78
2022/11/19 01:19:06;;;;;;;12.43;9.10;;;6.20;99.90;;;;;;4957917;29;20444;-77
2022/11/19 01:21:33;;;;;;;13.33;9.20;;;6.10;99.90;;;;;;4957958;29;20430;-77
2022/11/19 01:23:59;;;;;;;13.30;9.50;;;6.10;99.90;;;;;;4959090;29;20433;-77
2022/11/19 01:26:25;;;;;;;13.73;10.23;;;6.00;99.90;;;;;;4957988;29;20418;-77
2022/11/19 01:28:52;;;;;;;17.20;10.10;;;6.10;99.90;;;;;;4957468;29;20536;-77
2022/11/19 01:31:22;;;;;;;16.80;12.10;;;6.00;99.90;;;;;;4957487;29;20466;-77
2022/11/19 05:32:21;;;;;;;33.17;20.80;;;4.90;99.90;;;;;;5086797;23;20557;-83
2022/11/19 05:34:47;;;;;;;34.80;24.00;;;4.90;99.90;;;;;;4957340;29;20442;-83
2022/11/19 05:37:13;;;;;;;29.77;18.50;;;5.00;99.90;;;;;;4939738;29;20190;-83
2022/11/19 05:39:38;;;;;;;33.77;19.67;;;4.90;99.90;;;;;;4957312;29;20189;-82
2022/11/19 05:42:04;;;;;;;37.87;20.97;;;4.80;99.90;;;;;;4957239;29;20197;-82
2022/11/19 05:44:29;;;;;;;34.83;22.43;;;4.80;99.90;;;;;;4956943;29;20541;-78
2022/11/19 05:46:56;;;;;;;35.63;20.90;;;4.80;99.90;;;;;;4956972;29;20214;-79
2022/11/19 05:49:22;;;;;;;33.67;21.90;;;4.70;99.90;;;;;;4957125;29;20267;-80
2022/11/19 05:51:47;;;;;;;38.73;20.60;;;4.80;99.90;;;;;;4956847;29;20527;-79
2022/11/19 05:54:13;;;;;;;37.43;19.83;;;4.90;99.90;;;;;;4956957;29;20177;-79
2022/11/19 05:56:38;;;;;;;33.10;19.33;;;4.90;99.90;;;;;;4956217;28;20189;-79
2022/11/19 05:59:04;;;;;;;34.03;20.77;;;4.90;99.90;;;;;;4956751;29;20281;-79
2022/11/19 06:01:29;;;;;;;28.47;19.03;;;4.80;99.90;;;;;;4956728;29;20179;-79
2022/11/19 06:03:55;;;;;;;32.10;19.50;;;4.80;99.90;;;;;;4956615;29;20269;-81
2022/11/19 06:06:21;;;;;;;35.27;20.80;;;4.80;99.90;;;;;;4956600;29;20180;-80
2022/11/19 06:08:48;;;;;;;35.00;19.10;;;4.70;99.90;;;;;;4956652;29;20188;-82
2022/11/19 06:13:59;;;;;;;31.80;19.20;;;4.70;99.90;;;;;;4956569;29;20456;-80
2022/11/19 06:16:24;;;;;;;30.70;19.10;;;4.70;99.90;;;;;;4956493;29;20445;-80
2022/11/19 06:18:50;;;;;;;28.53;16.97;;;4.80;99.90;;;;;;4956518;29;20429;-80
2022/11/19 06:21:16;;;;;;;34.90;19.03;;;4.70;99.90;;;;;;4956389;29;20269;-81
2022/11/19 06:23:41;;;;;;;33.43;19.80;;;4.70;99.90;;;;;;4956357;29;20205;-80
2022/11/19 06:26:08;;;;;;;33.57;18.73;;;4.70;99.90;;;;;;4956369;29;20174;-80
2022/11/19 06:28:33;;;;;;;24.23;16.40;;;4.70;99.90;;;;;;4956355;29;20218;-80
2022/11/19 06:30:59;;;;;;;34.93;19.90;;;4.60;99.90;;;;;;4955947;28;20468;-80
2022/11/19 06:33:25;;;;;;;31.40;17.20;;;4.60;99.90;;;;;;4956331;29;20188;-84
2022/11/19 06:35:50;;;;;;;26.60;16.70;;;4.60;99.90;;;;;;4956207;29;20235;-85
2022/11/19 06:38:16;;;;;;;27.17;16.67;;;4.70;99.90;;;;;;4956227;29;20204;-84
2022/11/19 06:40:44;;;;;;;28.97;17.33;;;4.60;99.90;;;;;;4956115;29;20248;-85
2022/11/19 06:43:10;;;;;;;28.10;16.80;;;4.60;99.90;;;;;;4956121;29;20437;-87
2022/11/19 06:45:36;;;;;;;28.23;15.63;;;4.70;99.90;;;;;;4956134;29;20517;-81
2022/11/19 06:48:01;;;;;;;30.83;17.80;;;4.70;99.90;;;;;;4955855;29;20237;-81
2022/11/19 06:50:27;;;;;;;27.53;17.67;;;4.70;99.90;;;;;;4955998;29;20207;-82
2022/11/19 06:52:52;;;;;;;28.37;17.53;;;4.60;99.90;;;;;;4955837;29;20545;-81
2022/11/19 06:55:18;;;;;;;30.13;16.97;;;4.60;99.90;;;;;;4955846;29;20252;-82
2022/11/19 06:57:43;;;;;;;28.17;16.67;;;4.70;99.90;;;;;;4955743;29;20654;-82
2022/11/19 07:00:10;;;;;;;31.10;16.47;;;4.60;99.90;;;;;;4955739;29;20553;-82
2022/11/19 07:02:36;;;;;;;32.03;17.20;;;4.50;99.90;;;;;;4955672;29;20284;-82
2022/11/19 07:05:02;;;;;;;29.87;15.87;;;4.50;99.90;;;;;;4955516;29;20426;-80
2022/11/19 07:07:28;;;;;;;28.57;17.00;;;4.50;99.90;;;;;;4955399;29;20487;-79
2022/11/19 07:09:53;;;;;;;28.67;16.93;;;4.50;99.90;;;;;;4955307;28;20454;-81
2022/11/19 07:12:19;;;;;;;28.90;16.90;;;4.40;99.90;;;;;;4955421;29;20213;-81
2022/11/19 07:14:44;;;;;;;30.90;16.60;;;4.50;99.90;;;;;;4955214;29;20182;-81
2022/11/19 07:17:10;;;;;;;30.27;17.77;;;4.40;99.90;;;;;;4955528;29;20267;-84
2022/11/19 07:19:35;;;;;;;26.37;16.30;;;4.60;99.90;;;;;;4955484;29;20189;-84
2022/11/19 07:22:01;;;;;;;26.10;16.87;;;4.60;99.90;;;;;;4955982;29;20174;-79
2022/11/19 07:24:26;;;;;;;29.07;16.30;;;4.60;99.90;;;;;;4955263;29;20188;-76
2022/11/19 07:26:53;;;;;;;28.10;17.30;;;4.50;99.90;;;;;;4955096;29;20276;-80
2022/11/19 07:29:19;;;;;;;28.60;17.50;;;4.60;99.90;;;;;;4956394;29;20225;-83
2022/11/19 07:31:49;;;;;;;26.37;16.77;;;4.60;99.90;;;;;;4958005;28;20474;-83
2022/11/19 07:34:15;;;;;;;29.50;15.60;;;4.60;99.90;;;;;;4956914;29;20195;-82
2022/11/19 07:36:41;;;;;;;28.70;17.10;;;4.60;99.90;;;;;;4955468;29;20524;-81
2022/11/19 07:39:06;;;;;;;24.60;16.13;;;4.50;99.90;;;;;;4955199;29;20865;-82
2022/11/19 07:44:17;;;;;;;21.50;14.00;;;4.60;99.90;;;;;;4955521;29;20589;-80
2022/11/19 07:46:42;;;;;;;28.47;17.10;;;4.60;99.90;;;;;;4955007;29;20467;-79
2022/11/19 07:49:08;;;;;;;27.00;16.40;;;4.60;99.90;;;;;;4955004;29;20496;-75
2022/11/19 07:51:33;;;;;;;22.60;15.73;;;4.60;99.90;;;;;;4937732;29;20181;-78
2022/11/19 07:53:59;;;;;;;21.43;14.97;;;4.70;99.90;;;;;;4954275;29;20185;-80
2022/11/19 07:56:24;;;;;;;24.70;13.77;;;4.60;99.90;;;;;;4944240;29;20183;-76
2022/11/19 07:58:50;;;;;;;24.93;15.53;;;4.60;99.90;;;;;;4944949;29;20188;-75
2022/11/19 08:01:23;;;;;;;23.27;14.80;;;4.60;99.90;;;;;;4945586;29;20317;-77
2022/11/19 08:03:50;;;;;;;21.47;14.10;;;4.70;99.90;;;;;;4944413;29;20187;-80
2022/11/19 08:06:17;;;;;;;21.40;14.10;;;4.70;99.90;;;;;;4944252;29;20928;-81
2022/11/19 08:08:43;;;;;;;21.30;14.63;;;4.70;99.90;;;;;;4945634;29;20492;-74
2022/11/19 08:11:11;;;;;;;20.50;13.40;;;4.80;99.90;;;;;;4944545;29;20810;-79
2022/11/19 08:13:36;;;;;;;19.97;13.10;;;4.80;99.90;;;;;;4944090;29;20433;-78
2022/11/19 08:16:04;;;;;;;21.80;14.90;;;4.90;99.90;;;;;;4945795;29;20762;-75
2022/11/19 08:18:30;;;;;;;19.40;12.73;;;4.80;99.90;;;;;;4944364;29;20173;-77
2022/11/19 08:21:03;;;;;;;20.13;12.17;;;4.60;99.90;;;;;;4946121;28;20922;-78
2022/11/19 08:23:28;;;;;;;18.87;12.90;;;4.60;99.90;;;;;;4948153;29;20787;-76
2022/11/19 08:25:54;;;;;;;20.33;12.03;;;4.50;99.90;;;;;;4948198;29;20504;-75
2022/11/19 08:28:19;;;;;;;19.70;11.47;;;4.40;99.90;;;;;;4949381;29;20246;-74
2022/11/19 08:30:45;;;;;;;16.80;12.07;;;4.40;99.90;;;;;;4947144;28;20224;-74
2022/11/19 08:33:11;;;;;;;17.90;11.37;;;4.40;99.90;;;;;;4948668;29;20189;-74
2022/11/19 08:35:37;;;;;;;17.80;11.80;;;4.50;99.90;;;;;;4948886;29;20530;-73
2022/11/19 08:38:02;;;;;;;16.20;11.70;;;4.50;99.90;;;;;;4946994;29;20180;-73
2022/11/19 08:40:28;;;;;;;17.67;11.30;;;4.50;99.90;;;;;;4939085;29;20588;-80
2022/11/19 08:42:59;;;;;;;17.03;11.63;;;4.50;99.90;;;;;;4939015;29;20175;-78
2022/11/19 08:45:31;;;;;;;18.53;12.00;;;4.50;99.90;;;;;;4938881;29;20674;-78
2022/11/19 08:47:58;;;;;;;19.27;12.57;;;4.50;99.90;;;;;;4938862;29;20906;-80
2022/11/19 08:50:24;;;;;;;16.83;11.97;;;4.60;99.90;;;;;;4938867;29;20461;-79
2022/11/19 08:52:54;;;;;;;18.43;12.30;;;4.60;99.90;;;;;;4938872;29;20578;-82
2022/11/19 08:55:19;;;;;;;13.80;11.00;;;4.60;99.90;;;;;;4938840;29;20483;-76
2022/11/19 08:57:45;;;;;;;16.60;11.10;;;4.70;99.90;;;;;;4938694;29;20439;-73
2022/11/19 09:00:11;;;;;;;19.13;12.13;;;4.70;99.90;;;;;;4938526;29;20176;-76
2022/11/19 09:02:36;;;;;;;18.40;11.83;;;4.70;99.90;;;;;;4938632;29;20190;-76
2022/11/19 09:05:02;;;;;;;14.20;10.93;;;4.60;99.90;;;;;;4938716;29;20802;-75
2022/11/19 09:07:27;;;;;;;16.77;11.97;;;4.80;99.90;;;;;;4938481;29;20218;-79
2022/11/19 09:09:53;;;;;;;15.30;11.37;;;4.70;99.90;;;;;;4938455;29;20189;-80
2022/11/19 09:12:18;;;;;;;14.57;10.23;;;4.80;99.90;;;;;;4942342;29;20186;-78
2022/11/19 09:14:44;;;;;;;15.57;11.23;;;4.80;99.90;;;;;;4945327;29;20353;-76
2022/11/19 09:17:09;;;;;;;14.93;11.40;;;4.70;99.90;;;;;;4937511;29;20242;-77
2022/11/19 09:19:35;;;;;;;13.03;9.87;;;4.70;99.90;;;;;;4937608;29;20283;-86
2022/11/19 09:22:01;;;;;;;14.40;10.70;;;4.70;99.90;;;;;;4937382;29;20250;-79
2022/11/19 09:24:26;;;;;;;14.17;10.83;;;4.70;99.90;;;;;;4937430;29;20186;-77
2022/11/19 09:26:52;;;;;;;15.27;10.43;;;4.70;99.90;;;;;;4937183;29;20458;-75
2022/11/19 09:29:17;;;;;;;16.03;11.87;;;4.70;99.90;;;;;;4937291;29;20662;-79
2022/11/19 09:31:43;;;;;;;15.00;10.83;;;4.60;99.90;;;;;;4935963;29;20234;-79
2022/11/19 09:34:08;;;;;;;15.50;10.27;;;4.70;99.90;;;;;;4937180;29;20643;-79
2022/11/19 09:36:34;;;;;;;18.17;11.67;;;4.70;99.90;;;;;;4937352;29;20649;-77
2022/11/19 09:39:01;;;;;;;16.60;11.03;;;4.80;99.90;;;;;;4937238;29;20180;-74
2022/11/19 09:41:54;;;;;;;14.33;10.50;;;4.80;99.90;;;;;;4937050;29;20182;-74
2022/11/19 09:44:40;;;;;;;16.13;11.10;;;4.70;99.90;;;;;;4937085;29;20427;-81
2022/11/19 09:47:14;;;;;;;12.83;10.27;;;4.70;99.90;;;;;;4936942;29;20484;-82
2022/11/19 09:49:50;;;;;;;17.20;10.20;;;4.60;99.90;;;;;;4936708;29;20953;-79
2022/11/19 09:52:21;;;;;;;17.50;11.40;;;4.60;99.90;;;;;;4936955;29;20432;-78
2022/11/19 09:54:53;;;;;;;13.37;10.57;;;4.70;99.90;;;;;;4937083;29;21021;-78
2022/11/19 09:57:42;;;;;;;15.20;10.67;;;4.70;99.90;;;;;;4936844;29;20519;-78
2022/11/19 10:00:09;;;;;;;13.00;10.30;;;4.60;99.90;;;;;;4936679;29;20434;-78
2022/11/19 10:02:34;;;;;;;16.50;11.00;;;4.70;99.90;;;;;;4936705;29;20434;-77
2022/11/19 10:05:00;;;;;;;15.90;11.40;;;4.70;99.90;;;;;;4936558;29;20435;-78
2022/11/19 10:07:28;;;;;;;15.87;11.00;;;4.70;99.90;;;;;;4936643;29;20213;-77
2022/11/19 10:10:26;;;;;;;13.97;9.80;;;4.70;99.90;;;;;;4936547;29;20171;-80
2022/11/19 10:13:13;;;;;;;13.83;9.43;;;4.70;99.90;;;;;;4923551;29;20439;-74
2022/11/19 10:16:06;;;;;;;14.30;9.77;;;4.80;99.90;;;;;;4936312;29;20430;-75
2022/11/19 10:19:19;;;;;;;12.33;8.30;;;4.70;99.90;;;;;;4936181;29;20434;-72
2022/11/19 10:22:11;;;;;;;16.40;11.67;;;4.70;99.90;;;;;;4936298;29;20575;-76
2022/11/19 10:24:51;;;;;;;15.60;10.80;;;4.70;99.90;;;;;;4936266;29;20802;-74
2022/11/19 10:27:28;;;;;;;12.83;9.40;;;4.90;99.90;;;;;;4935709;29;20462;-76
2022/11/19 10:29:58;;;;;;;13.90;9.57;;;4.90;99.90;;;;;;4935150;29;20592;-74
2022/11/19 10:32:30;;;;;;;15.90;9.33;;;4.90;99.90;;;;;;4936016;29;20524;-83
2022/11/19 10:35:01;;;;;;;14.23;9.90;;;5.00;99.90;;;;;;4936269;29;20438;-77
2022/11/19 10:37:33;;;;;;;18.37;11.63;;;5.00;99.90;;;;;;4936027;29;20426;-75
2022/11/19 10:40:07;;;;;;;15.80;9.47;;;5.10;99.90;;;;;;4936098;29;20443;-79
2022/11/19 10:42:39;;;;;;;13.60;9.50;;;5.10;99.90;;;;;;4935849;29;20423;-76
2022/11/19 10:45:17;;;;;;;15.83;11.00;;;5.00;99.90;;;;;;4935974;29;20768;-81
2022/11/19 10:47:47;;;;;;;12.53;9.70;;;5.00;99.90;;;;;;4935915;29;20510;-77
2022/11/19 10:50:24;;;;;;;16.67;10.00;;;5.10;99.90;;;;;;4935833;29;20930;-87
2022/11/19 10:53:12;;;;;;;17.77;10.97;;;5.20;99.90;;;;;;4936163;29;20426;-84
2022/11/19 10:55:43;;;;;;;11.60;9.63;;;5.30;99.90;;;;;;4935737;29;20435;-80
2022/11/19 10:58:24;;;;;;;13.50;9.77;;;5.50;99.90;;;;;;4935528;29;20431;-80
2022/11/19 11:00:54;;;;;;;14.60;10.40;;;5.70;99.90;;;;;;4935382;29;20423;-75
2022/11/19 11:03:25;;;;;;;11.80;9.27;;;5.80;99.90;;;;;;4935637;29;20577;-77
2022/11/19 11:06:08;;;;;;;13.90;10.03;;;5.80;99.90;;;;;;4935452;29;20835;-78
2022/11/19 11:08:54;;;;;;;15.63;10.07;;;6.00;99.90;;;;;;4939479;29;20605;-83
2022/11/19 11:14:50;;;;;;;15.00;10.00;;;6.10;99.90;;;;;;4954663;29;20577;-80
2022/11/19 11:17:37;;;;;;;14.30;10.93;;;6.40;99.90;;;;;;4955294;29;20461;-81
2022/11/19 11:20:22;;;;;;;12.37;9.43;;;6.40;99.90;;;;;;4955509;29;20521;-86
2022/11/19 11:22:50;;;;;;;11.80;10.10;;;6.40;99.90;;;;;;4955287;29;20751;-83
2022/11/19 11:25:24;;;;;;;13.17;9.07;;;6.30;99.90;;;;;;4955281;29;20469;-83
2022/11/19 11:28:17;;;;;;;14.43;10.93;;;6.30;99.90;;;;;;4954253;29;20447;-84
2022/11/19 11:30:53;;;;;;;12.70;10.30;;;6.30;99.90;;;;;;4951531;28;20574;-80
2022/11/19 11:33:40;;;;;;;13.77;10.27;;;6.30;99.90;;;;;;4955374;29;20800;-81
2022/11/19 11:36:11;;;;;;;13.23;10.17;;;6.40;99.90;;;;;;4955277;29;20410;-82
2022/11/19 11:38:44;;;;;;;14.63;10.20;;;6.40;99.90;;;;;;4955341;29;20465;-79
2022/11/19 11:41:13;;;;;;;12.70;9.37;;;6.30;99.90;;;;;;4955314;29;20437;-83
2022/11/19 11:44:00;;;;;;;12.20;9.60;;;6.30;99.90;;;;;;4954916;29;20433;-83
2022/11/19 11:46:32;;;;;;;15.60;9.40;;;6.20;99.90;;;;;;4955095;29;20456;-84
2022/11/19 11:48:58;;;;;;;15.10;10.00;;;6.20;99.90;;;;;;4955443;29;20450;-83
2022/11/19 11:51:33;;;;;;;12.40;9.40;;;6.20;99.90;;;;;;4956020;29;20429;-88
2022/11/19 11:54:19;;;;;;;11.23;9.23;;;6.10;99.90;;;;;;4955136;29;20539;-82
2022/11/19 11:56:45;;;;;;;12.67;9.30;;;6.00;99.90;;;;;;4954589;29;20522;-84
2022/11/19 11:59:22;;;;;;;13.67;8.90;;;6.00;99.90;;;;;;4955307;29;20532;-82
2022/11/19 12:01:53;;;;;;;16.50;9.37;;;6.00;99.90;;;;;;4954774;29;20225;-81
2022/11/19 12:04:19;;;;;;;14.77;10.83;;;6.10;99.90;;;;;;4954751;29;20422;-81
2022/11/19 12:06:52;;;;;;;14.00;9.50;;;6.00;99.90;;;;;;4954381;29;20492;-77
2022/11/19 12:09:32;;;;;;;12.57;10.27;;;5.90;99.90;;;;;;4952450;29;20597;-80
2022/11/19 12:12:16;;;;;;;12.87;9.83;;;6.10;99.90;;;;;;4935572;29;20837;-75
2022/11/19 12:15:06;;;;;;;13.67;9.37;;;6.00;99.90;;;;;;4935659;29;20488;-81
2022/11/19 12:17:54;;;;;;;16.80;8.57;;;5.90;99.90;;;;;;4935782;29;20431;-80
2022/11/19 12:20:23;;;;;;;15.80;10.70;;;5.90;99.90;;;;;;4920714;29;20537;-74
2022/11/19 12:23:00;;;;;;;11.43;9.60;;;5.90;99.90;;;;;;4935509;29;20446;-74
2022/11/19 12:25:44;;;;;;;12.07;9.20;;;6.00;99.90;;;;;;4935435;29;20439;-73
2022/11/19 12:28:36;;;;;;;16.37;10.83;;;6.00;99.90;;;;;;4935445;29;20569;-71
2022/11/19 12:31:33;;;;;;;13.50;10.00;;;5.90;99.90;;;;;;4935342;29;20463;-73
2022/11/19 12:34:20;;;;;;;12.30;9.03;;;5.90;99.90;;;;;;4935299;29;20439;-71
2022/11/19 12:36:58;;;;;;;13.90;10.20;;;5.90;99.90;;;;;;4935419;29;20419;-68
2022/11/19 12:39:41;;;;;;;14.97;8.80;;;5.90;99.90;;;;;;4935262;29;20937;-68
2022/11/19 12:42:25;;;;;;;14.03;9.80;;;5.80;99.90;;;;;;4935420;29;20481;-70
2022/11/19 12:44:56;;;;;;;13.20;8.90;;;5.90;99.90;;;;;;4935403;29;20517;-70
2022/11/19 12:47:45;;;;;;;15.80;9.70;;;5.90;99.90;;;;;;4935245;29;20510;-71
2022/11/19 12:50:52;;;;;;;14.70;8.47;;;5.90;99.90;;;;;;4935439;29;20440;-73
2022/11/19 12:53:49;;;;;;;17.13;12.10;;;5.80;99.90;;;;;;4935308;29;20462;-69
2022/11/19 12:56:37;;;;;;;14.30;9.60;;;5.90;99.90;;;;;;4933963;29;20435;-71
2022/11/19 12:59:30;;;;;;;14.73;10.47;;;6.00;99.90;;;;;;4934333;29;20525;-71
2022/11/19 13:01:59;;;;;;;11.07;8.73;;;5.90;99.90;;;;;;4934227;29;20549;-77
2022/11/19 13:04:28;;;;;;;15.87;9.97;;;5.90;99.90;;;;;;4934374;29;20446;-82
2022/11/19 13:07:05;;;;;;;15.20;9.50;;;6.00;99.90;;;;;;4935777;29;20492;-72
2022/11/19 13:09:39;;;;;;;13.50;9.00;;;6.10;99.90;;;;;;4937485;29;20816;-73
2022/11/19 13:12:08;;;;;;;12.90;8.87;;;6.20;99.90;;;;;;4942715;29;20437;-72
2022/11/19 13:15:01;;;;;;;15.80;8.90;;;6.20;99.90;;;;;;4956412;29;20438;-73
2022/11/19 13:17:36;;;;;;;13.80;9.20;;;6.10;99.90;;;;;;4955692;29;20906;-73
2022/11/19 13:20:12;;;;;;;12.20;9.00;;;6.10;99.90;;;;;;4956706;29;20428;-72
2022/11/19 13:22:42;;;;;;;11.87;9.30;;;6.20;99.90;;;;;;4956423;29;20435;-73
2022/11/19 13:25:17;;;;;;;14.27;8.23;;;6.10;99.90;;;;;;4956806;29;20425;-73
2022/11/19 13:27:45;;;;;;;12.27;8.73;;;6.00;99.90;;;;;;4956452;29;20468;-73
2022/11/19 13:30:22;;;;;;;10.33;8.93;;;6.00;99.90;;;;;;4956635;29;20521;-73
2022/11/19 13:33:12;;;;;;;12.67;10.10;;;6.10;99.90;;;;;;4975822;28;20441;-72
2022/11/19 13:36:06;;;;;;;13.70;8.73;;;6.00;99.90;;;;;;4975641;28;20425;-73
2022/11/19 13:38:47;;;;;;;11.10;8.27;;;5.90;99.90;;;;;;4975677;28;20469;-73
2022/11/19 13:44:37;;;;;;;13.20;8.87;;;5.80;99.90;;;;;;4975837;28;20475;-73
2022/11/19 13:47:18;;;;;;;15.53;8.70;;;5.80;99.90;;;;;;4977990;28;20511;-73
2022/11/19 13:49:52;;;;;;;14.40;9.03;;;5.80;99.90;;;;;;4975509;28;20544;-73
2022/11/19 13:52:23;;;;;;;11.17;9.10;;;5.80;99.90;;;;;;4975372;28;20504;-73
2022/11/19 13:54:49;;;;;;;12.57;9.27;;;5.70;99.90;;;;;;4975136;28;20860;-73
2022/11/19 13:57:35;;;;;;;15.50;9.30;;;5.70;99.90;;;;;;4975170;28;20516;-73
2022/11/19 14:00:05;;;;;;;13.80;9.30;;;5.60;99.90;;;;;;4975589;28;20767;-73
2022/11/19 14:02:45;;;;;;;10.20;7.93;;;5.50;99.90;;;;;;4975100;28;20432;-73
2022/11/19 14:05:29;;;;;;;11.33;8.27;;;5.50;99.90;;;;;;4975381;28;20495;-73
2022/11/19 14:08:25;;;;;;;16.13;9.40;;;5.50;99.90;;;;;;4974985;28;20563;-73
2022/11/19 14:11:07;;;;;;;13.23;9.63;;;5.40;99.90;;;;;;4975111;28;20429;-73
2022/11/19 14:14:01;;;;;;;13.50;8.17;;;5.40;99.90;;;;;;4974951;28;20545;-73
2022/11/19 14:28:50;;;;;;;12.60;8.40;;;5.30;99.90;;;;;;4974371;28;20479;-73
2022/11/19 14:31:18;;;;;;;10.10;8.50;;;5.40;99.90;;;;;;4974098;28;20472;-73
2022/11/19 14:33:46;;;;;;;12.20;8.10;;;5.20;99.90;;;;;;4975183;28;20448;-73
2022/11/19 14:36:16;;;;;;;17.70;9.07;;;5.20;99.90;;;;;;4975296;28;20468;-73
2022/11/19 14:39:14;;;;;;;12.13;8.73;;;5.10;99.90;;;;;;4974813;28;20436;-73
2022/11/19 14:41:42;;;;;;;11.83;8.37;;;5.00;99.90;;;;;;4974385;28;20435;-73
2022/11/19 14:44:12;;;;;;;10.60;7.90;;;5.10;99.90;;;;;;4975197;28;20432;-73
2022/11/19 14:46:44;;;;;;;14.10;8.40;;;5.10;99.90;;;;;;4974725;28;20430;-73
2022/11/19 14:49:29;;;;;;;13.80;9.60;;;5.00;99.90;;;;;;4975240;28;20443;-73
2022/11/19 14:51:56;;;;;;;10.17;8.13;;;4.90;99.90;;;;;;4974939;28;20512;-73
2022/11/19 14:54:25;;;;;;;12.63;8.33;;;4.90;99.90;;;;;;4975018;28;20508;-73
2022/11/19 14:57:19;;;;;;;12.80;7.90;;;5.00;99.90;;;;;;4974817;28;20420;-73
2022/11/19 14:59:48;;;;;;;13.80;9.07;;;5.00;99.90;;;;;;4957188;28;20456;-71
2022/11/19 15:02:23;;;;;;;13.37;9.00;;;5.00;99.90;;;;;;4973591;28;20430;-72
2022/11/19 15:05:13;;;;;;;11.90;8.40;;;5.00;99.90;;;;;;4971407;28;20443;-71
2022/11/19 15:07:42;;;;;;;15.33;8.53;;;4.90;99.90;;;;;;4973793;28;20568;-76
2022/11/19 15:10:13;;;;;;;11.73;8.43;;;4.90;99.90;;;;;;4973935;28;20433;-71
2022/11/19 15:12:41;;;;;;;16.03;9.80;;;4.80;99.90;;;;;;4973812;28;20425;-72
2022/11/19 15:15:19;;;;;;;12.17;5.93;;;4.70;99.90;;;;;;4973799;28;20926;-72
2022/11/19 15:18:00;;;;;;;13.20;9.03;;;4.90;99.90;;;;;;4962017;28;20971;-76
2022/11/19 15:21:04;;;;;;;12.03;8.17;;;5.00;99.90;;;;;;4954374;29;20953;-72
2022/11/19 15:24:05;;;;;;;12.23;10.10;;;5.00;99.90;;;;;;4953035;29;20443;-71
2022/11/19 15:26:58;;;;;;;11.17;8.50;;;5.00;99.90;;;;;;4954325;29;20170;-75
2022/11/19 15:29:48;;;;;;;12.10;9.50;;;5.00;99.90;;;;;;4953709;28;20460;-72
2022/11/19 15:32:33;;;;;;;11.67;8.80;;;5.00;99.90;;;;;;4954092;28;20528;-82
2022/11/19 15:35:35;;;;;;;10.90;7.87;;;5.00;99.90;;;;;;4955088;28;20456;-80
2022/11/19 15:38:13;;;;;;;12.40;8.47;;;4.90;99.90;;;;;;4954258;29;20876;-80
2022/11/19 15:40:40;;;;;;;9.67;7.83;;;4.90;99.90;;;;;;4954013;29;20461;-74
2022/11/19 15:43:18;;;;;;;11.07;8.80;;;4.90;99.90;;;;;;4954274;29;20465;-72
2022/11/19 15:46:08;;;;;;;13.50;8.23;;;4.90;99.90;;;;;;4953991;29;20430;-72
2022/11/19 15:48:46;;;;;;;12.10;8.63;;;4.80;99.90;;;;;;4953382;29;20492;-72
2022/11/19 15:51:15;;;;;;;14.90;9.43;;;4.70;99.90;;;;;;4953907;29;20422;-72
2022/11/19 15:54:01;;;;;;;15.37;9.03;;;4.50;99.90;;;;;;4953994;29;20437;-71
2022/11/19 15:56:48;;;;;;;14.50;9.97;;;4.50;99.90;;;;;;4953494;29;20445;-76
2022/11/19 15:59:16;;;;;;;12.33;8.60;;;4.60;99.90;;;;;;4953960;29;20437;-80
2022/11/19 16:01:42;;;;;;;15.97;10.30;;;4.60;99.90;;;;;;4953789;29;20489;-71
2022/11/19 16:04:15;;;;;;;12.83;10.03;;;4.50;99.90;;;;;;4953950;29;20930;-72
2022/11/19 16:06:54;;;;;;;15.27;9.57;;;4.40;99.90;;;;;;4956193;28;20196;-78
2022/11/19 16:09:22;;;;;;;10.80;8.00;;;4.30;99.90;;;;;;4966519;28;20444;-80
2022/11/19 16:17:36;;;;;;;14.30;9.07;;;4.30;99.90;;;;;;4963364;28;20468;-74
2022/11/19 16:20:04;;;;;;;11.53;8.70;;;4.20;99.90;;;;;;4963982;28;20490;-73
2022/11/19 16:22:32;;;;;;;11.27;8.23;;;4.20;99.90;;;;;;4961999;28;20421;-73
2022/11/19 16:25:03;;;;;;;12.70;9.40;;;4.20;99.90;;;;;;4945612;28;20520;-73
2022/11/19 16:27:29;;;;;;;13.73;8.43;;;4.20;99.90;;;;;;4961856;28;20492;-72
2022/11/19 16:29:55;;;;;;;14.93;9.47;;;4.00;99.90;;;;;;4961797;28;20789;-76
2022/11/19 16:32:24;;;;;;;13.90;10.23;;;4.00;99.90;;;;;;4955955;28;20482;-71
2022/11/19 16:34:50;;;;;;;14.00;9.90;;;4.10;99.90;;;;;;4953707;29;20438;-71
2022/11/19 16:37:19;;;;;;;14.27;9.77;;;4.00;99.90;;;;;;4953792;29;20787;-71
2022/11/19 16:39:52;;;;;;;13.70;9.20;;;4.10;99.90;;;;;;4953604;29;20197;-71
2022/11/19 16:42:25;;;;;;;12.33;9.87;;;4.00;99.90;;;;;;4956073;28;20437;-71
2022/11/19 16:45:06;;;;;;;16.87;9.70;;;4.00;99.90;;;;;;4962448;28;21009;-71
2022/11/19 16:47:37;;;;;;;14.30;10.77;;;3.90;99.90;;;;;;4957032;29;20457;-71
2022/11/19 16:50:13;;;;;;;16.80;10.40;;;3.90;99.90;;;;;;4957415;29;20437;-71
2022/11/19 16:52:41;;;;;;;15.20;10.87;;;3.80;99.90;;;;;;4957095;29;20925;-71
2022/11/19 16:55:16;;;;;;;12.60;9.57;;;3.80;99.90;;;;;;4957281;29;20469;-71
2022/11/19 16:57:46;;;;;;;15.13;10.83;;;3.70;99.90;;;;;;4957009;29;20460;-71
2022/11/19 17:00:20;;;;;;;17.13;10.17;;;3.70;99.90;;;;;;4957081;29;20420;-71
2022/11/19 17:02:47;;;;;;;13.97;9.80;;;3.70;99.90;;;;;;4956783;29;20429;-72
2022/11/19 17:05:15;;;;;;;13.40;10.20;;;3.90;99.90;;;;;;4956788;29;20433;-74
2022/11/19 17:07:44;;;;;;;15.97;10.23;;;4.20;99.90;;;;;;4956798;29;20453;-69
2022/11/19 17:10:31;;;;;;;12.20;9.37;;;4.10;99.90;;;;;;4956851;29;20443;-73
2022/11/19 17:13:21;;;;;;;16.50;9.73;;;4.00;99.90;;;;;;4956818;29;20904;-71
2022/11/19 17:15:48;;;;;;;13.60;8.87;;;3.90;99.90;;;;;;4944923;28;20455;-72
2022/11/19 17:18:28;;;;;;;14.80;9.70;;;3.80;99.90;;;;;;4970183;28;20437;-72
2022/11/19 17:21:05;;;;;;;15.13;9.53;;;3.80;99.90;;;;;;4973716;28;20434;-76
2022/11/19 17:23:34;;;;;;;14.73;10.77;;;3.90;99.90;;;;;;4975998;28;20531;-75
2022/11/19 17:26:14;;;;;;;14.60;10.27;;;3.80;99.90;;;;;;4976052;28;20577;-76
2022/11/19 17:28:44;;;;;;;15.27;9.23;;;3.70;99.90;;;;;;4966720;28;20482;-73
2022/11/19 17:31:18;;;;;;;13.20;9.37;;;3.60;99.90;;;;;;4965413;28;20463;-73
2022/11/19 17:33:54;;;;;;;15.90;11.03;;;3.50;99.90;;;;;;4964925;28;20437;-75
2022/11/19 17:36:21;;;;;;;16.90;11.30;;;3.50;99.90;;;;;;4965990;28;20427;-71
2022/11/19 17:38:50;;;;;;;15.13;9.10;;;3.50;99.90;;;;;;4975664;28;20463;-71